Wetterdaten: Woche 26.09.16 - 02.10.16 (KW39)
Datum Zeit Temp. I. Temp. A. Feuchte I. Feuchte A. Luftdruck Regen Wind Richtung Sonnenschein UV Solar Taupunkt Windchill Windben
26.09.2016 00:00 22,4 C 9,4 C 55 % 89 % 1020,8 hPa 0,0 l/m 0,0 km/h (0 Bft) N 0,00 h 0,0 UV-I 0 W/m 7,6 C 9,4 C 0,0 km/h (0 Bft)
26.09.2016 01:00 22,3 C 8,5 C 55 % 90 % 1020,9 hPa 0,0 l/m 0,0 km/h (0 Bft) N 0,00 h 0,0 UV-I 0 W/m 7,0 C 8,5 C 0,0 km/h (0 Bft)
26.09.2016 02:00 22,3 C 7,8 C 55 % 91 % 1020,9 hPa 0,0 l/m 0,0 km/h (0 Bft) N 0,00 h 0,0 UV-I 0 W/m 6,4 C 7,8 C 0,0 km/h (0 Bft)
26.09.2016 03:00 22,2 C 7,3 C 55 % 92 % 1020,9 hPa 0,0 l/m 0,0 km/h (0 Bft) N 0,00 h 0,0 UV-I 0 W/m 6,1 C 7,3 C 0,0 km/h (0 Bft)
26.09.2016 04:00 22,2 C 6,9 C 55 % 92 % 1020,8 hPa 0,0 l/m 0,0 km/h (0 Bft) N 0,00 h 0,0 UV-I 0 W/m 5,7 C 6,9 C 0,0 km/h (0 Bft)
26.09.2016 05:00 22,2 C 6,4 C 55 % 92 % 1020,8 hPa 0,0 l/m 0,0 km/h (0 Bft) N 0,00 h 0,0 UV-I 0 W/m 5,2 C 6,4 C 0,0 km/h (0 Bft)
26.09.2016 06:00 22,2 C 6,0 C 55 % 93 % 1020,9 hPa 0,0 l/m 0,0 km/h (0 Bft) N 0,00 h 0,0 UV-I 0 W/m 5,0 C 6,0 C 0,0 km/h (0 Bft)
26.09.2016 07:00 22,3 C 5,9 C 56 % 94 % 1021,2 hPa 0,0 l/m 0,0 km/h (0 Bft) N 0,00 h 0,0 UV-I 17 W/m 5,0 C 5,9 C 0,0 km/h (0 Bft)
26.09.2016 08:00 22,4 C 6,7 C 57 % 95 % 1021,5 hPa 0,0 l/m 0,0 km/h (0 Bft) N 0,18 h 0,6 UV-I 97 W/m 5,9 C 6,7 C 0,0 km/h (0 Bft)
26.09.2016 09:00 22,5 C 11,0 C 56 % 89 % 1021,5 hPa 0,0 l/m 0,0 km/h (0 Bft) N 0,92 h 1,1 UV-I 297 W/m 9,3 C 11,0 C 0,1 km/h (0 Bft)
26.09.2016 10:00 22,3 C 15,9 C 55 % 77 % 1021,5 hPa 0,0 l/m 3,9 km/h (1 Bft) N-NO 1,00 h 1,9 UV-I 437 W/m 12,0 C 15,7 C 6,9 km/h (2 Bft)
26.09.2016 11:00 22,2 C 18,0 C 55 % 71 % 1021,4 hPa 0,0 l/m 3,7 km/h (1 Bft) N 1,00 h 2,8 UV-I 536 W/m 12,6 C 18,0 C 6,7 km/h (2 Bft)
26.09.2016 12:00 22,3 C 20,2 C 55 % 66 % 1021,1 hPa 0,0 l/m 2,9 km/h (1 Bft) N 1,00 h 3,1 UV-I 564 W/m 13,5 C 20,2 C 5,5 km/h (1 Bft)
26.09.2016 13:00 22,4 C 20,8 C 55 % 64 % 1020,9 hPa 0,0 l/m 3,0 km/h (1 Bft) W-NW 1,00 h 3,2 UV-I 550 W/m 13,7 C 20,8 C 6,1 km/h (2 Bft)
26.09.2016 14:00 22,5 C 21,3 C 55 % 61 % 1020,5 hPa 0,0 l/m 2,2 km/h (1 Bft) W-NW 1,00 h 2,7 UV-I 515 W/m 13,6 C 21,3 C 5,2 km/h (1 Bft)
26.09.2016 15:00 22,6 C 21,0 C 55 % 60 % 1020,4 hPa 0,0 l/m 2,9 km/h (1 Bft) N 1,00 h 1,8 UV-I 375 W/m 13,0 C 21,0 C 6,5 km/h (2 Bft)
26.09.2016 16:00 22,7 C 20,8 C 56 % 62 % 1020,4 hPa 0,0 l/m 3,6 km/h (1 Bft) NW 1,00 h 1,1 UV-I 279 W/m 13,2 C 20,7 C 7,8 km/h (2 Bft)
26.09.2016 17:00 22,7 C 19,6 C 55 % 66 % 1020,4 hPa 0,0 l/m 4,2 km/h (1 Bft) N-NW 0,57 h 0,6 UV-I 157 W/m 13,0 C 19,5 C 8,8 km/h (2 Bft)
26.09.2016 18:00 22,7 C 17,4 C 55 % 74 % 1020,9 hPa 0,0 l/m 1,5 km/h (1 Bft) N 0,00 h 0,0 UV-I 32 W/m 12,7 C 17,4 C 4,4 km/h (1 Bft)
26.09.2016 19:00 22,8 C 15,9 C 56 % 77 % 1021,4 hPa 0,0 l/m 0,1 km/h (0 Bft) N 0,00 h 0,0 UV-I 0 W/m 11,8 C 15,9 C 0,6 km/h (0 Bft)
26.09.2016 20:00 22,8 C 14,5 C 56 % 82 % 1022,1 hPa 0,0 l/m 0,1 km/h (0 Bft) N-NW 0,00 h 0,0 UV-I 0 W/m 11,4 C 14,5 C 0,2 km/h (0 Bft)
26.09.2016 21:00 22,7 C 13,3 C 56 % 86 % 1022,7 hPa 0,0 l/m 0,0 km/h (0 Bft) N 0,00 h 0,0 UV-I 0 W/m 10,9 C 13,3 C 0,1 km/h (0 Bft)
26.09.2016 22:00 22,9 C 12,5 C 57 % 88 % 1022,9 hPa 0,0 l/m 0,0 km/h (0 Bft) N 0,00 h 0,0 UV-I 0 W/m 10,5 C 12,5 C 0,0 km/h (0 Bft)
26.09.2016 23:00 22,8 C 12,0 C 56 % 90 % 1022,8 hPa 0,0 l/m 0,1 km/h (0 Bft) W-NW 0,00 h 0,0 UV-I 0 W/m 10,3 C 12,0 C 0,5 km/h (0 Bft)
27.09.2016 00:00 22,6 C 11,2 C 56 % 90 % 1022,8 hPa 0,0 l/m 0,0 km/h (0 Bft) N 0,00 h 0,0 UV-I 0 W/m 9,6 C 11,2 C 0,0 km/h (0 Bft)
27.09.2016 01:00 22,6 C 10,3 C 57 % 90 % 1022,7 hPa 0,0 l/m 0,0 km/h (0 Bft) N 0,00 h 0,0 UV-I 0 W/m 8,7 C 10,3 C 0,1 km/h (0 Bft)
27.09.2016 02:00 22,5 C 9,3 C 57 % 91 % 1022,8 hPa 0,0 l/m 0,0 km/h (0 Bft) N 0,00 h 0,0 UV-I 0 W/m 7,9 C 9,3 C 0,0 km/h (0 Bft)
27.09.2016 03:00 22,6 C 8,6 C 57 % 92 % 1022,7 hPa 0,0 l/m 0,0 km/h (0 Bft) N 0,00 h 0,0 UV-I 0 W/m 7,4 C 8,6 C 0,0 km/h (0 Bft)
27.09.2016 04:00 22,7 C 8,7 C 57 % 93 % 1022,9 hPa 0,0 l/m 0,0 km/h (0 Bft) N 0,00 h 0,0 UV-I 0 W/m 7,7 C 8,7 C 0,0 km/h (0 Bft)
27.09.2016 05:00 22,7 C 9,0 C 57 % 94 % 1023,3 hPa 0,0 l/m 0,3 km/h (0 Bft) N-NW 0,00 h 0,0 UV-I 0 W/m 8,0 C 9,0 C 1,2 km/h (1 Bft)
27.09.2016 06:00 22,8 C 8,7 C 57 % 94 % 1023,5 hPa 0,0 l/m 0,6 km/h (0 Bft) O-NO 0,00 h 0,0 UV-I 0 W/m 7,8 C 8,7 C 1,1 km/h (0 Bft)
27.09.2016 07:00 22,7 C 8,3 C 57 % 94 % 1024,0 hPa 0,0 l/m 0,2 km/h (0 Bft) NW 0,00 h 0,0 UV-I 20 W/m 7,4 C 8,3 C 0,5 km/h (0 Bft)
27.09.2016 08:00 22,8 C 9,0 C 57 % 95 % 1024,4 hPa 0,0 l/m 0,0 km/h (0 Bft) N 0,37 h 0,6 UV-I 117 W/m 8,3 C 9,0 C 0,0 km/h (0 Bft)
27.09.2016 09:00 23,0 C 12,6 C 57 % 91 % 1024,7 hPa 0,0 l/m 0,8 km/h (0 Bft) W 1,00 h 0,9 UV-I 274 W/m 11,2 C 12,6 C 1,5 km/h (1 Bft)
27.09.2016 10:00 23,0 C 15,4 C 56 % 82 % 1025,0 hPa 0,0 l/m 2,3 km/h (1 Bft) W-NW 1,00 h 1,8 UV-I 424 W/m 12,2 C 15,4 C 5,0 km/h (1 Bft)
27.09.2016 11:00 23,0 C 18,1 C 56 % 71 % 1025,2 hPa 0,0 l/m 1,5 km/h (1 Bft) W 1,00 h 2,6 UV-I 526 W/m 12,8 C 18,1 C 3,5 km/h (1 Bft)
27.09.2016 12:00 23,0 C 19,8 C 55 % 64 % 1025,3 hPa 0,0 l/m 1,0 km/h (0 Bft) N 1,00 h 3,1 UV-I 569 W/m 12,6 C 19,8 C 2,7 km/h (1 Bft)
27.09.2016 13:00 23,0 C 21,1 C 55 % 59 % 1025,3 hPa 0,0 l/m 0,6 km/h (0 Bft) W-NW 1,00 h 3,1 UV-I 591 W/m 12,7 C 21,1 C 1,8 km/h (1 Bft)
27.09.2016 14:00 23,0 C 21,0 C 55 % 58 % 1025,3 hPa 0,0 l/m 0,5 km/h (0 Bft) O-NO 1,00 h 2,3 UV-I 482 W/m 12,3 C 21,0 C 1,8 km/h (1 Bft)
27.09.2016 15:00 23,0 C 21,3 C 54 % 56 % 1025,3 hPa 0,0 l/m 1,0 km/h (0 Bft) N-NW 1,00 h 1,7 UV-I 440 W/m 12,1 C 21,3 C 3,1 km/h (1 Bft)
27.09.2016 16:00 23,1 C 21,1 C 54 % 55 % 1025,5 hPa 0,0 l/m 1,6 km/h (1 Bft) N-NW 1,00 h 1,0 UV-I 321 W/m 11,7 C 21,1 C 3,7 km/h (1 Bft)
27.09.2016 17:00 23,2 C 20,1 C 55 % 56 % 1025,7 hPa 0,0 l/m 1,4 km/h (1 Bft) NW 0,45 h 0,6 UV-I 137 W/m 11,0 C 20,1 C 3,3 km/h (1 Bft)
27.09.2016 18:00 23,2 C 18,2 C 55 % 64 % 1026,1 hPa 0,0 l/m 0,5 km/h (0 Bft) N-NO 0,00 h 0,0 UV-I 15 W/m 11,3 C 18,2 C 1,2 km/h (1 Bft)
27.09.2016 19:00 23,2 C 16,5 C 55 % 73 % 1026,7 hPa 0,0 l/m 0,3 km/h (0 Bft) N-NO 0,00 h 0,0 UV-I 0 W/m 11,7 C 16,5 C 1,3 km/h (1 Bft)
27.09.2016 20:00 23,2 C 14,5 C 56 % 80 % 1027,1 hPa 0,0 l/m 0,0 km/h (0 Bft) N 0,00 h 0,0 UV-I 0 W/m 11,1 C 14,5 C 0,0 km/h (0 Bft)
27.09.2016 21:00 23,2 C 13,0 C 56 % 85 % 1027,4 hPa 0,0 l/m 0,0 km/h (0 Bft) N 0,00 h 0,0 UV-I 0 W/m 10,5 C 13,0 C 0,0 km/h (0 Bft)
27.09.2016 22:00 23,2 C 11,7 C 56 % 88 % 1027,5 hPa 0,0 l/m 0,0 km/h (0 Bft) N 0,00 h 0,0 UV-I 0 W/m 9,7 C 11,7 C 0,0 km/h (0 Bft)
27.09.2016 23:00 23,1 C 10,6 C 56 % 89 % 1027,5 hPa 0,0 l/m 0,0 km/h (0 Bft) N 0,00 h 0,0 UV-I 0 W/m 8,9 C 10,6 C 0,0 km/h (0 Bft)
28.09.2016 00:00 23,0 C 9,8 C 56 % 90 % 1027,7 hPa 0,0 l/m 0,0 km/h (0 Bft) N 0,00 h 0,0 UV-I 0 W/m 8,3 C 9,8 C 0,0 km/h (0 Bft)
28.09.2016 01:00 22,9 C 9,1 C 56 % 92 % 1027,7 hPa 0,0 l/m 0,0 km/h (0 Bft) N 0,00 h 0,0 UV-I 0 W/m 7,8 C 9,1 C 0,0 km/h (0 Bft)
28.09.2016 02:00 22,8 C 8,5 C 56 % 92 % 1027,6 hPa 0,0 l/m 0,0 km/h (0 Bft) N 0,00 h 0,0 UV-I 0 W/m 7,3 C 8,5 C 0,0 km/h (0 Bft)
28.09.2016 03:00 22,8 C 7,9 C 56 % 92 % 1027,6 hPa 0,0 l/m 0,0 km/h (0 Bft) N 0,00 h 0,0 UV-I 0 W/m 6,7 C 7,9 C 0,0 km/h (0 Bft)
28.09.2016 04:00 22,8 C 7,6 C 56 % 93 % 1027,4 hPa 0,0 l/m 0,0 km/h (0 Bft) N 0,00 h 0,0 UV-I 0 W/m 6,5 C 7,6 C 0,0 km/h (0 Bft)
28.09.2016 05:00 22,9 C 7,2 C 56 % 93 % 1027,3 hPa 0,0 l/m 0,0 km/h (0 Bft) N 0,00 h 0,0 UV-I 0 W/m 6,1 C 7,2 C 0,0 km/h (0 Bft)
28.09.2016 06:00 22,9 C 6,8 C 57 % 94 % 1027,2 hPa 0,0 l/m 0,0 km/h (0 Bft) N 0,00 h 0,0 UV-I 0 W/m 5,9 C 6,8 C 0,0 km/h (0 Bft)
28.09.2016 07:00 22,9 C 6,4 C 57 % 94 % 1027,6 hPa 0,0 l/m 0,0 km/h (0 Bft) N 0,00 h 0,0 UV-I 23 W/m 5,5 C 6,4 C 0,1 km/h (0 Bft)
28.09.2016 08:00 23,1 C 7,6 C 56 % 95 % 1027,3 hPa 0,0 l/m 0,2 km/h (0 Bft) SO 0,00 h 0,5 UV-I 85 W/m 6,9 C 7,6 C 0,6 km/h (0 Bft)
28.09.2016 09:00 23,0 C 10,8 C 56 % 96 % 1027,4 hPa 0,0 l/m 0,7 km/h (0 Bft) S 0,40 h 0,8 UV-I 143 W/m 10,2 C 10,8 C 2,1 km/h (1 Bft)
28.09.2016 10:00 22,9 C 13,7 C 56 % 92 % 1027,7 hPa 0,0 l/m 3,1 km/h (1 Bft) SW 0,50 h 1,4 UV-I 233 W/m 12,5 C 13,6 C 7,5 km/h (2 Bft)
28.09.2016 11:00 23,0 C 15,6 C 56 % 84 % 1027,6 hPa 0,0 l/m 4,8 km/h (1 Bft) S 1,00 h 2,2 UV-I 327 W/m 12,9 C 15,5 C 8,5 km/h (2 Bft)
28.09.2016 12:00 23,1 C 16,8 C 56 % 79 % 1027,0 hPa 0,0 l/m 6,0 km/h (2 Bft) S 1,00 h 2,7 UV-I 379 W/m 13,1 C 16,3 C 11,9 km/h (2 Bft)
28.09.2016 13:00 23,1 C 18,7 C 56 % 72 % 1026,2 hPa 0,0 l/m 6,9 km/h (2 Bft) SW 1,00 h 3,1 UV-I 482 W/m 13,5 C 18,1 C 14,4 km/h (3 Bft)
28.09.2016 14:00 23,1 C 19,2 C 57 % 67 % 1025,5 hPa 0,0 l/m 8,2 km/h (2 Bft) W-SW 1,00 h 2,0 UV-I 294 W/m 13,0 C 18,2 C 16,4 km/h (3 Bft)
28.09.2016 15:00 23,1 C 19,7 C 57 % 62 % 1024,9 hPa 0,0 l/m 8,5 km/h (2 Bft) W-SW 1,00 h 1,6 UV-I 276 W/m 12,2 C 18,7 C 18,4 km/h (3 Bft)
28.09.2016 16:00 23,1 C 19,4 C 57 % 58 % 1024,9 hPa 0,0 l/m 7,7 km/h (2 Bft) W 0,77 h 0,9 UV-I 183 W/m 10,9 C 18,6 C 15,9 km/h (3 Bft)
28.09.2016 17:00 23,3 C 18,7 C 57 % 53 % 1025,2 hPa 0,0 l/m 4,7 km/h (1 Bft) W-SW 0,00 h 0,5 UV-I 87 W/m 9,0 C 18,4 C 11,3 km/h (2 Bft)
28.09.2016 18:00 23,4 C 17,4 C 57 % 55 % 1025,6 hPa 0,0 l/m 0,9 km/h (0 Bft) W-SW 0,00 h 0,0 UV-I 20 W/m 8,4 C 17,4 C 4,0 km/h (1 Bft)
28.09.2016 19:00 23,5 C 16,5 C 57 % 60 % 1025,9 hPa 0,0 l/m 0,6 km/h (0 Bft) W-SW 0,00 h 0,0 UV-I 0 W/m 8,8 C 16,5 C 2,9 km/h (1 Bft)
28.09.2016 20:00 23,5 C 16,0 C 57 % 65 % 1026,0 hPa 0,0 l/m 1,5 km/h (1 Bft) W-SW 0,00 h 0,0 UV-I 0 W/m 9,4 C 16,0 C 4,2 km/h (1 Bft)
28.09.2016 21:00 23,5 C 15,2 C 58 % 69 % 1026,1 hPa 0,0 l/m 0,0 km/h (0 Bft) W-SW 0,00 h 0,0 UV-I 0 W/m 9,5 C 15,2 C 0,2 km/h (0 Bft)
28.09.2016 22:00 23,6 C 13,7 C 58 % 76 % 1025,9 hPa 0,0 l/m 0,0 km/h (0 Bft) N 0,00 h 0,0 UV-I 0 W/m 9,4 C 13,7 C 0,0 km/h (0 Bft)
28.09.2016 23:00 23,3 C 13,3 C 57 % 79 % 1025,9 hPa 0,0 l/m 0,0 km/h (0 Bft) S 0,00 h 0,0 UV-I 0 W/m 9,7 C 13,3 C 0,3 km/h (0 Bft)
29.09.2016 00:00 23,3 C 13,5 C 58 % 79 % 1025,7 hPa 0,0 l/m 0,0 km/h (0 Bft) N 0,00 h 0,0 UV-I 0 W/m 10,0 C 13,5 C 0,3 km/h (0 Bft)
29.09.2016 01:00 23,4 C 13,0 C 58 % 81 % 1025,7 hPa 0,0 l/m 0,1 km/h (0 Bft) S-SO 0,00 h 0,0 UV-I 0 W/m 9,9 C 13,0 C 0,4 km/h (0 Bft)
29.09.2016 02:00 23,5 C 12,6 C 58 % 84 % 1025,5 hPa 0,0 l/m 0,3 km/h (0 Bft) S-SO 0,00 h 0,0 UV-I 0 W/m 10,0 C 12,6 C 2,0 km/h (1 Bft)
29.09.2016 03:00 23,5 C 12,9 C 59 % 85 % 1025,1 hPa 0,0 l/m 0,4 km/h (0 Bft) S 0,00 h 0,0 UV-I 0 W/m 10,4 C 12,9 C 1,7 km/h (1 Bft)
29.09.2016 04:00 23,6 C 12,9 C 59 % 84 % 1024,6 hPa 0,0 l/m 0,2 km/h (0 Bft) S-SW 0,00 h 0,0 UV-I 0 W/m 10,2 C 12,9 C 0,7 km/h (0 Bft)
29.09.2016 05:00 23,6 C 12,5 C 59 % 85 % 1024,3 hPa 0,0 l/m 0,3 km/h (0 Bft) S 0,00 h 0,0 UV-I 0 W/m 10,1 C 12,5 C 1,5 km/h (1 Bft)
29.09.2016 06:00 23,7 C 12,3 C 59 % 86 % 1024,0 hPa 0,0 l/m 0,0 km/h (0 Bft) N 0,00 h 0,0 UV-I 0 W/m 10,0 C 12,3 C 0,4 km/h (0 Bft)
29.09.2016 07:00 23,8 C 12,3 C 58 % 87 % 1023,8 hPa 0,0 l/m 0,2 km/h (0 Bft) S 0,00 h 0,0 UV-I 26 W/m 10,2 C 12,3 C 1,0 km/h (0 Bft)
29.09.2016 08:00 23,6 C 13,2 C 59 % 86 % 1023,4 hPa 0,0 l/m 0,6 km/h (0 Bft) S 0,22 h 0,6 UV-I 107 W/m 10,8 C 13,2 C 2,4 km/h (1 Bft)
29.09.2016 09:00 23,6 C 15,4 C 58 % 78 % 1023,1 hPa 0,0 l/m 4,6 km/h (1 Bft) SW 1,00 h 1,1 UV-I 264 W/m 11,5 C 15,3 C 10,4 km/h (2 Bft)
29.09.2016 10:00 23,5 C 17,3 C 57 % 71 % 1022,6 hPa 0,0 l/m 5,9 km/h (2 Bft) S 1,00 h 2,2 UV-I 466 W/m 12,0 C 17,0 C 12,2 km/h (2 Bft)
29.09.2016 11:00 23,4 C 18,9 C 56 % 66 % 1021,7 hPa 0,0 l/m 7,6 km/h (2 Bft) S 1,00 h 3,1 UV-I 549 W/m 12,4 C 18,1 C 14,5 km/h (3 Bft)
29.09.2016 12:00 23,5 C 20,4 C 54 % 61 % 1020,7 hPa 0,0 l/m 7,3 km/h (2 Bft) SW 1,00 h 3,7 UV-I 592 W/m 12,6 C 19,8 C 15,8 km/h (3 Bft)
29.09.2016 13:00 23,6 C 21,6 C 55 % 57 % 1019,8 hPa 0,0 l/m 7,0 km/h (2 Bft) SW 1,00 h 3,7 UV-I 586 W/m 12,5 C 21,0 C 14,5 km/h (3 Bft)
29.09.2016 14:00 23,6 C 22,4 C 55 % 52 % 1018,6 hPa 0,0 l/m 7,8 km/h (2 Bft) W-SW 1,00 h 3,2 UV-I 540 W/m 12,0 C 21,9 C 16,2 km/h (3 Bft)
29.09.2016 15:00 23,7 C 22,5 C 54 % 52 % 1017,6 hPa 0,0 l/m 8,2 km/h (2 Bft) S 1,00 h 2,2 UV-I 443 W/m 12,1 C 21,8 C 15,9 km/h (3 Bft)
29.09.2016 16:00 24,0 C 22,3 C 52 % 52 % 1016,9 hPa 0,0 l/m 8,0 km/h (2 Bft) SW 1,00 h 1,2 UV-I 317 W/m 12,0 C 21,7 C 14,7 km/h (3 Bft)
29.09.2016 17:00 23,9 C 21,7 C 52 % 55 % 1016,4 hPa 0,0 l/m 5,3 km/h (1 Bft) S 0,50 h 0,7 UV-I 149 W/m 12,1 C 21,5 C 11,3 km/h (2 Bft)
29.09.2016 18:00 23,6 C 20,2 C 52 % 59 % 1016,2 hPa 0,0 l/m 1,7 km/h (1 Bft) S-SW 0,00 h 0,0 UV-I 16 W/m 11,9 C 20,2 C 5,1 km/h (1 Bft)
29.09.2016 19:00 23,6 C 18,8 C 53 % 64 % 1016,0 hPa 0,0 l/m 0,5 km/h (0 Bft) S 0,00 h 0,0 UV-I 0 W/m 11,8 C 18,8 C 1,8 km/h (1 Bft)
29.09.2016 20:00 23,7 C 17,7 C 53 % 68 % 1015,8 hPa 0,0 l/m 0,1 km/h (0 Bft) SO 0,00 h 0,0 UV-I 0 W/m 11,8 C 17,7 C 0,4 km/h (0 Bft)
29.09.2016 21:00 23,7 C 16,6 C 54 % 73 % 1015,5 hPa 0,0 l/m 0,7 km/h (0 Bft) SW 0,00 h 0,0 UV-I 0 W/m 11,8 C 16,6 C 2,5 km/h (1 Bft)
29.09.2016 22:00 23,8 C 16,6 C 55 % 75 % 1015,3 hPa 0,0 l/m 3,7 km/h (1 Bft) S 0,00 h 0,0 UV-I 0 W/m 12,2 C 16,5 C 8,9 km/h (2 Bft)
29.09.2016 23:00 23,6 C 16,5 C 55 % 76 % 1015,3 hPa 0,0 l/m 2,6 km/h (1 Bft) SW 0,00 h 0,0 UV-I 0 W/m 12,2 C 16,4 C 7,4 km/h (2 Bft)
30.09.2016 00:00 23,5 C 16,5 C 55 % 76 % 1015,4 hPa 0,0 l/m 3,2 km/h (1 Bft) S 0,00 h 0,0 UV-I 0 W/m 12,2 C 16,4 C 8,4 km/h (2 Bft)
30.09.2016 01:00 23,5 C 16,3 C 55 % 75 % 1015,4 hPa 0,0 l/m 1,6 km/h (1 Bft) S 0,00 h 0,0 UV-I 0 W/m 11,9 C 16,3 C 5,1 km/h (1 Bft)
30.09.2016 02:00 23,4 C 15,5 C 55 % 77 % 1015,3 hPa 0,0 l/m 0,1 km/h (0 Bft) S 0,00 h 0,0 UV-I 0 W/m 11,4 C 15,5 C 1,1 km/h (1 Bft)
30.09.2016 03:00 23,4 C 14,5 C 56 % 79 % 1015,0 hPa 0,0 l/m 0,1 km/h (0 Bft) S-SO 0,00 h 0,0 UV-I 0 W/m 11,0 C 14,5 C 0,7 km/h (0 Bft)
30.09.2016 04:00 23,4 C 13,9 C 56 % 81 % 1014,8 hPa 0,0 l/m 0,0 km/h (0 Bft) N 0,00 h 0,0 UV-I 0 W/m 10,7 C 13,9 C 0,4 km/h (0 Bft)
30.09.2016 05:00 23,4 C 13,2 C 56 % 82 % 1014,6 hPa 0,0 l/m 0,0 km/h (0 Bft) N 0,00 h 0,0 UV-I 0 W/m 10,3 C 13,2 C 0,0 km/h (0 Bft)
30.09.2016 06:00 23,3 C 12,1 C 56 % 86 % 1014,5 hPa 0,0 l/m 0,0 km/h (0 Bft) N 0,00 h 0,0 UV-I 0 W/m 9,8 C 12,1 C 0,0 km/h (0 Bft)
30.09.2016 07:00 23,3 C 11,5 C 56 % 88 % 1014,8 hPa 0,0 l/m 0,0 km/h (0 Bft) N 0,00 h 0,0 UV-I 21 W/m 9,7 C 11,5 C 0,0 km/h (0 Bft)
30.09.2016 08:00 23,4 C 12,2 C 56 % 90 % 1014,9 hPa 0,0 l/m 0,0 km/h (0 Bft) N 0,02 h 0,5 UV-I 75 W/m 10,5 C 12,2 C 0,1 km/h (0 Bft)
30.09.2016 09:00 23,6 C 15,4 C 57 % 79 % 1014,8 hPa 0,0 l/m 1,5 km/h (1 Bft) SW 0,57 h 1,0 UV-I 196 W/m 11,9 C 15,4 C 3,4 km/h (1 Bft)
30.09.2016 10:00 23,6 C 17,1 C 56 % 72 % 1015,1 hPa 0,0 l/m 5,4 km/h (1 Bft) S 0,83 h 1,8 UV-I 273 W/m 12,1 C 16,8 C 11,1 km/h (2 Bft)
30.09.2016 11:00 23,7 C 18,6 C 56 % 67 % 1014,9 hPa 0,0 l/m 6,0 km/h (2 Bft) S-SW 1,00 h 2,7 UV-I 403 W/m 12,3 C 18,1 C 11,8 km/h (2 Bft)
30.09.2016 12:00 23,9 C 19,7 C 56 % 64 % 1014,5 hPa 0,0 l/m 5,9 km/h (2 Bft) S 1,00 h 3,0 UV-I 397 W/m 12,6 C 19,4 C 9,7 km/h (2 Bft)
30.09.2016 13:00 23,8 C 21,5 C 55 % 58 % 1014,2 hPa 0,0 l/m 6,8 km/h (2 Bft) S 1,00 h 3,5 UV-I 587 W/m 12,8 C 21,1 C 12,8 km/h (3 Bft)
30.09.2016 14:00 23,9 C 21,1 C 55 % 58 % 1013,8 hPa 0,0 l/m 6,9 km/h (2 Bft) S 0,92 h 2,2 UV-I 270 W/m 12,4 C 20,5 C 12,6 km/h (3 Bft)
30.09.2016 15:00 23,9 C 21,0 C 55 % 59 % 1013,5 hPa 0,0 l/m 3,9 km/h (1 Bft) S 0,57 h 1,3 UV-I 183 W/m 12,5 C 20,8 C 8,2 km/h (2 Bft)
30.09.2016 16:00 23,9 C 21,0 C 55 % 60 % 1013,2 hPa 0,0 l/m 2,3 km/h (1 Bft) SW 0,22 h 0,9 UV-I 127 W/m 12,9 C 21,0 C 5,5 km/h (1 Bft)
30.09.2016 17:00 24,0 C 20,4 C 55 % 58 % 1013,2 hPa 0,0 l/m 5,4 km/h (1 Bft) W 0,00 h 0,5 UV-I 39 W/m 11,8 C 20,1 C 11,4 km/h (2 Bft)
30.09.2016 18:00 24,2 C 19,4 C 55 % 60 % 1013,5 hPa 0,0 l/m 3,2 km/h (1 Bft) W 0,00 h 0,0 UV-I 13 W/m 11,6 C 19,3 C 8,1 km/h (2 Bft)
30.09.2016 19:00 24,2 C 18,6 C 55 % 63 % 1013,7 hPa 0,0 l/m 0,2 km/h (0 Bft) W-SW 0,00 h 0,0 UV-I 0 W/m 11,3 C 18,6 C 1,0 km/h (0 Bft)
30.09.2016 20:00 24,2 C 17,7 C 55 % 67 % 1014,1 hPa 0,0 l/m 0,0 km/h (0 Bft) N 0,00 h 0,0 UV-I 0 W/m 11,5 C 17,7 C 0,0 km/h (0 Bft)
30.09.2016 21:00 24,3 C 16,7 C 56 % 73 % 1014,4 hPa 0,0 l/m 0,0 km/h (0 Bft) N 0,00 h 0,0 UV-I 0 W/m 11,8 C 16,7 C 0,0 km/h (0 Bft)
30.09.2016 22:00 24,3 C 15,5 C 56 % 79 % 1014,5 hPa 0,0 l/m 0,0 km/h (0 Bft) N 0,00 h 0,0 UV-I 0 W/m 11,8 C 15,5 C 0,0 km/h (0 Bft)
30.09.2016 23:00 24,2 C 14,3 C 56 % 82 % 1014,3 hPa 0,0 l/m 0,0 km/h (0 Bft) N 0,00 h 0,0 UV-I 0 W/m 11,3 C 14,3 C 0,0 km/h (0 Bft)
01.10.2016 00:00 24,2 C 13,1 C 56 % 85 % 1014,0 hPa 0,0 l/m 0,0 km/h (0 Bft) N 0,00 h 0,0 UV-I 0 W/m 10,7 C 13,1 C 0,0 km/h (0 Bft)
01.10.2016 01:00 24,0 C 12,2 C 56 % 88 % 1013,7 hPa 0,0 l/m 0,0 km/h (0 Bft) N 0,00 h 0,0 UV-I 0 W/m 10,3 C 12,2 C 0,0 km/h (0 Bft)
01.10.2016 02:00 23,9 C 11,5 C 56 % 90 % 1013,2 hPa 0,0 l/m 0,0 km/h (0 Bft) N 0,00 h 0,0 UV-I 0 W/m 9,9 C 11,5 C 0,0 km/h (0 Bft)
01.10.2016 03:00 23,7 C 11,1 C 57 % 91 % 1012,7 hPa 0,0 l/m 0,0 km/h (0 Bft) N 0,00 h 0,0 UV-I 0 W/m 9,6 C 11,1 C 0,0 km/h (0 Bft)
01.10.2016 04:00 23,1 C 11,0 C 58 % 92 % 1012,3 hPa 0,0 l/m 0,0 km/h (0 Bft) N 0,00 h 0,0 UV-I 0 W/m 9,7 C 11,0 C 0,0 km/h (0 Bft)
01.10.2016 05:00 22,9 C 11,2 C 59 % 92 % 1011,9 hPa 0,0 l/m 0,0 km/h (0 Bft) N 0,00 h 0,0 UV-I 0 W/m 10,0 C 11,2 C 0,0 km/h (0 Bft)
01.10.2016 06:00 22,9 C 11,1 C 59 % 92 % 1011,5 hPa 0,0 l/m 0,0 km/h (0 Bft) N 0,00 h 0,0 UV-I 0 W/m 9,9 C 11,1 C 0,0 km/h (0 Bft)
01.10.2016 07:00 23,1 C 11,1 C 59 % 94 % 1011,4 hPa 0,0 l/m 0,1 km/h (0 Bft) O-NO 0,00 h 0,0 UV-I 19 W/m 10,1 C 11,1 C 0,7 km/h (0 Bft)
01.10.2016 08:00 23,8 C 11,9 C 58 % 94 % 1010,8 hPa 0,0 l/m 0,1 km/h (0 Bft) O-NO 0,00 h 0,5 UV-I 73 W/m 11,0 C 11,9 C 0,4 km/h (0 Bft)
01.10.2016 09:00 24,1 C 14,9 C 58 % 87 % 1010,8 hPa 0,0 l/m 0,0 km/h (0 Bft) N 0,88 h 1,0 UV-I 275 W/m 12,8 C 14,9 C 0,0 km/h (0 Bft)
01.10.2016 10:00 24,2 C 19,0 C 56 % 69 % 1010,8 hPa 0,0 l/m 6,2 km/h (2 Bft) S-SO 1,00 h 2,0 UV-I 467 W/m 13,2 C 18,0 C 10,0 km/h (2 Bft)
01.10.2016 11:00 24,1 C 20,0 C 54 % 61 % 1010,8 hPa 0,0 l/m 12,2 km/h (2 Bft) S 1,00 h 2,8 UV-I 534 W/m 12,1 C 18,1 C 18,2 km/h (3 Bft)
01.10.2016 12:00 24,2 C 20,4 C 53 % 60 % 1010,6 hPa 0,0 l/m 8,7 km/h (2 Bft) S 1,00 h 3,0 UV-I 508 W/m 12,3 C 19,4 C 16,5 km/h (3 Bft)
01.10.2016 13:00 24,0 C 21,2 C 51 % 58 % 1010,2 hPa 0,0 l/m 8,4 km/h (2 Bft) S 1,00 h 2,9 UV-I 492 W/m 12,7 C 20,4 C 15,2 km/h (3 Bft)
01.10.2016 14:00 24,1 C 21,5 C 51 % 55 % 1009,6 hPa 0,0 l/m 6,7 km/h (2 Bft) S 1,00 h 1,8 UV-I 337 W/m 12,2 C 21,0 C 12,8 km/h (3 Bft)
01.10.2016 15:00 24,1 C 21,0 C 51 % 60 % 1009,3 hPa 0,0 l/m 7,4 km/h (2 Bft) S 0,60 h 1,2 UV-I 269 W/m 12,9 C 20,3 C 13,3 km/h (3 Bft)
01.10.2016 16:00 24,2 C 21,0 C 52 % 60 % 1008,9 hPa 0,0 l/m 5,4 km/h (1 Bft) S 0,72 h 0,9 UV-I 216 W/m 12,8 C 20,7 C 10,3 km/h (2 Bft)
01.10.2016 17:00 24,2 C 20,2 C 52 % 58 % 1008,7 hPa 0,0 l/m 3,6 km/h (1 Bft) SW 0,00 h 0,5 UV-I 52 W/m 11,6 C 20,1 C 8,7 km/h (2 Bft)
01.10.2016 18:00 24,3 C 18,7 C 53 % 70 % 1009,3 hPa 0,0 l/m 2,0 km/h (1 Bft) W 0,00 h 0,0 UV-I 9 W/m 13,0 C 18,6 C 4,4 km/h (1 Bft)
01.10.2016 19:00 24,3 C 16,7 C 54 % 81 % 1010,2 hPa 0,2 l/m 2,5 km/h (1 Bft) W 0,00 h 0,0 UV-I 0 W/m 13,3 C 16,6 C 5,4 km/h (1 Bft)
01.10.2016 20:00 24,3 C 15,5 C 54 % 83 % 1010,6 hPa 0,0 l/m 0,3 km/h (0 Bft) SW 0,00 h 0,0 UV-I 0 W/m 12,5 C 15,5 C 1,5 km/h (1 Bft)
01.10.2016 21:00 24,3 C 15,2 C 54 % 83 % 1010,9 hPa 0,0 l/m 0,1 km/h (0 Bft) S 0,00 h 0,0 UV-I 0 W/m 12,3 C 15,2 C 0,6 km/h (0 Bft)
01.10.2016 22:00 24,2 C 14,9 C 55 % 83 % 1011,1 hPa 0,0 l/m 0,0 km/h (0 Bft) S 0,00 h 0,0 UV-I 0 W/m 12,0 C 14,9 C 0,0 km/h (0 Bft)
01.10.2016 23:00 24,2 C 14,7 C 55 % 84 % 1011,3 hPa 0,2 l/m 0,5 km/h (0 Bft) W-SW 0,00 h 0,0 UV-I 0 W/m 11,9 C 14,7 C 2,0 km/h (1 Bft)
02.10.2016 00:00 24,1 C 13,8 C 55 % 88 % 1011,4 hPa 0,0 l/m 2,1 km/h (1 Bft) S 0,00 h 0,0 UV-I 0 W/m 11,8 C 13,8 C 5,5 km/h (1 Bft)
02.10.2016 01:00 24,1 C 13,1 C 55 % 90 % 1011,7 hPa 0,0 l/m 0,2 km/h (0 Bft) SW 0,00 h 0,0 UV-I 0 W/m 11,5 C 13,1 C 1,9 km/h (1 Bft)
02.10.2016 02:00 24,0 C 12,8 C 55 % 91 % 1012,2 hPa 0,0 l/m 1,2 km/h (1 Bft) SW 0,00 h 0,0 UV-I 0 W/m 11,4 C 12,8 C 4,5 km/h (1 Bft)
02.10.2016 03:00 24,0 C 12,7 C 56 % 90 % 1012,2 hPa 0,0 l/m 2,2 km/h (1 Bft) SW 0,00 h 0,0 UV-I 0 W/m 11,1 C 12,6 C 5,8 km/h (2 Bft)
02.10.2016 04:00 23,9 C 11,9 C 56 % 90 % 1012,2 hPa 0,0 l/m 0,0 km/h (0 Bft) SW 0,00 h 0,0 UV-I 0 W/m 10,3 C 11,9 C 0,5 km/h (0 Bft)
02.10.2016 05:00 23,9 C 11,2 C 56 % 92 % 1012,4 hPa 0,0 l/m 0,0 km/h (0 Bft) N 0,00 h 0,0 UV-I 0 W/m 9,9 C 11,2 C 0,1 km/h (0 Bft)
02.10.2016 06:00 23,9 C 10,7 C 56 % 93 % 1012,6 hPa 0,0 l/m 0,0 km/h (0 Bft) N 0,00 h 0,0 UV-I 0 W/m 9,6 C 10,7 C 0,0 km/h (0 Bft)
02.10.2016 07:00 23,9 C 10,3 C 56 % 93 % 1012,8 hPa 0,0 l/m 0,0 km/h (0 Bft) O 0,00 h 0,0 UV-I 11 W/m 9,2 C 10,3 C 0,2 km/h (0 Bft)
02.10.2016 08:00 24,1 C 10,5 C 56 % 95 % 1013,0 hPa 0,0 l/m 0,0 km/h (0 Bft) N 0,00 h 0,0 UV-I 43 W/m 9,7 C 10,5 C 0,0 km/h (0 Bft)
02.10.2016 09:00 24,3 C 12,4 C 58 % 92 % 1013,2 hPa 0,0 l/m 1,4 km/h (1 Bft) S 0,58 h 1,0 UV-I 222 W/m 11,1 C 12,4 C 2,7 km/h (1 Bft)
02.10.2016 10:00 24,4 C 14,5 C 57 % 82 % 1013,0 hPa 0,0 l/m 5,4 km/h (1 Bft) S-SO 0,75 h 1,1 UV-I 204 W/m 11,4 C 14,2 C 10,2 km/h (2 Bft)
02.10.2016 11:00 24,3 C 14,4 C 57 % 81 % 1013,3 hPa 0,0 l/m 5,3 km/h (1 Bft) S 0,18 h 0,9 UV-I 107 W/m 11,1 C 13,9 C 11,3 km/h (2 Bft)
02.10.2016 12:00 24,2 C 13,3 C 56 % 88 % 1013,5 hPa 0,8 l/m 4,2 km/h (1 Bft) S 0,00 h 0,8 UV-I 76 W/m 11,3 C 13,0 C 7,5 km/h (2 Bft)
02.10.2016 13:00 24,2 C 13,1 C 56 % 93 % 1013,6 hPa 0,0 l/m 0,0 km/h (0 Bft) S-SO 0,00 h 0,9 UV-I 105 W/m 11,9 C 13,1 C 0,4 km/h (0 Bft)
02.10.2016 14:00 24,3 C 13,1 C 57 % 93 % 1013,6 hPa 0,2 l/m 0,1 km/h (0 Bft) S-SO 0,00 h 0,8 UV-I 65 W/m 12,0 C 13,1 C 0,9 km/h (0 Bft)
02.10.2016 15:00 24,6 C 12,6 C 57 % 92 % 1013,9 hPa 1,2 l/m 0,6 km/h (0 Bft) S 0,00 h 0,6 UV-I 48 W/m 11,3 C 12,6 C 2,0 km/h (1 Bft)
02.10.2016 16:00 24,6 C 12,1 C 57 % 91 % 1014,0 hPa 0,2 l/m 0,0 km/h (0 Bft) S-SO 0,00 h 0,0 UV-I 36 W/m 10,7 C 12,1 C 0,3 km/h (0 Bft)
02.10.2016 17:00 24,5 C 12,0 C 57 % 92 % 1014,1 hPa 0,2 l/m 1,9 km/h (1 Bft) S 0,00 h 0,0 UV-I 37 W/m 10,8 C 12,0 C 5,1 km/h (1 Bft)
02.10.2016 18:00 24,6 C 11,4 C 58 % 93 % 1014,3 hPa 0,0 l/m 1,0 km/h (0 Bft) S 0,00 h 0,0 UV-I 16 W/m 10,3 C 11,4 C 3,4 km/h (1 Bft)
02.10.2016 19:00 24,6 C 10,8 C 57 % 93 % 1015,3 hPa 0,0 l/m 1,6 km/h (1 Bft) S 0,00 h 0,0 UV-I 0 W/m 9,7 C 10,8 C 5,0 km/h (1 Bft)
02.10.2016 20:00 24,4 C 10,1 C 57 % 94 % 1016,1 hPa 0,0 l/m 0,3 km/h (0 Bft) SW 0,00 h 0,0 UV-I 0 W/m 9,2 C 10,1 C 1,7 km/h (1 Bft)
02.10.2016 21:00 24,4 C 9,5 C 57 % 94 % 1016,6 hPa 0,0 l/m 0,1 km/h (0 Bft) S-SW 0,00 h 0,0 UV-I 0 W/m 8,6 C 9,5 C 0,3 km/h (0 Bft)
02.10.2016 22:00 24,5 C 9,4 C 57 % 95 % 1016,9 hPa 0,0 l/m 0,1 km/h (0 Bft) S 0,00 h 0,0 UV-I 0 W/m 8,6 C 9,4 C 0,2 km/h (0 Bft)
02.10.2016 23:00 24,5 C 9,5 C 55 % 95 % 1017,2 hPa 0,0 l/m 0,7 km/h (0 Bft) S-SW 0,00 h 0,0 UV-I 0 W/m 8,7 C 9,5 C 2,4 km/h (1 Bft)
Min-Datum _ 26.09.16 26.09.16 29.09.16 28.09.16 01.10.16 - 26.09.16 - - - - 26.09.16 26.09.16 26.09.16
_ Min-Zeit 06:57 07:40 18:00 17:31 17:12 - 00:00 - - - - 06:37 07:40 00:00
Minimum _ 22,1 C 5,8 C 50 % 49 % 1008,6 hPa - 0,0 km/h (0 Bft) - - - - 4,9 C 5,8 C 0,0 km/h (0 Bft)
Max-Datum _ 02.10.16 29.09.16 29.09.16 28.09.16 28.09.16 02.10.16 01.10.16 - 27.09.16 29.09.16 30.09.16 26.09.16 29.09.16 28.09.16
_ Max-Zeit 18:48 14:35 03:20 08:59 10:22 15:00 11:16 - 09:46 12:38 11:47 13:42 15:18 15:25
Maximum _ 24,8 C 22,8 C 59 % 97 % 1027,9 hPa 1,2 l/m 24,1 km/h
S (4 Bft)
- 0,62 h 3,9 UV-I 719 W/m 14,7 C 22,8 C 35,4 km/h
W-SW (5 Bft)
Durchschnitt _ 23,4 C 14,6 C 56 % 79 % 1018,9 hPa #3,0 l/m 1,9 km/h (1 Bft) S #47:42 h 1,7 UV-I 252 W/m 10,6 C 14,4 C 4,0 km/h (1 Bft)